createdAt,value
2019-02-15T00:01:06.405Z,27.83
2019-02-15T00:03:33.456Z,20.50
2019-02-15T00:06:00.511Z,24.70
2019-02-15T00:08:27.551Z,30.33
2019-02-15T00:10:54.601Z,22.30
2019-02-15T00:13:21.546Z,34.50
2019-02-15T00:15:48.595Z,29.97
2019-02-15T00:18:18.307Z,28.87
2019-02-15T00:20:46.180Z,27.10
2019-02-15T00:23:13.222Z,28.03
2019-02-15T00:25:42.016Z,30.53
2019-02-15T00:28:09.060Z,30.83
2019-02-15T00:30:36.109Z,32.80
2019-02-15T00:33:05.410Z,27.10
2019-02-15T00:35:32.471Z,31.17
2019-02-15T00:37:59.508Z,31.53
2019-02-15T00:40:28.398Z,32.27
2019-02-15T00:42:55.453Z,24.27
2019-02-15T00:45:22.605Z,31.27
2019-02-15T00:48:05.729Z,23.20
2019-02-15T00:50:38.507Z,17.57
2019-02-15T00:53:23.274Z,23.70
2019-02-15T00:55:54.319Z,29.60
2019-02-15T00:58:34.371Z,26.70
2019-02-15T01:01:02.349Z,25.33
2019-02-15T01:03:32.051Z,26.17
2019-02-15T01:06:14.972Z,33.07
2019-02-15T01:08:47.956Z,30.77
2019-02-15T01:11:15.685Z,25.90
2019-02-15T01:13:43.077Z,26.20
2019-02-15T01:16:10.135Z,26.33
2019-02-15T01:18:38.608Z,22.97
2019-02-15T01:21:07.658Z,25.20
2019-02-15T01:23:34.708Z,24.43
2019-02-15T01:26:03.546Z,21.20
2019-02-15T01:28:32.128Z,21.13
2019-02-15T01:31:14.900Z,24.13
2019-02-15T01:33:59.607Z,27.07
2019-02-15T01:36:27.324Z,23.90
2019-02-15T01:39:09.171Z,25.03
2019-02-15T01:41:51.990Z,21.53
2019-02-15T01:44:30.511Z,20.53
2019-02-15T01:46:57.666Z,22.53
2019-02-15T01:49:24.704Z,24.70
2019-02-15T01:51:51.750Z,24.67
2019-02-15T01:54:18.807Z,26.37
2019-02-15T01:56:45.847Z,23.43
2019-02-15T01:59:12.896Z,25.23
2019-02-15T02:01:39.948Z,26.20
2019-02-15T02:04:06.992Z,19.03
2019-02-15T02:06:34.041Z,17.10
2019-02-15T02:09:01.095Z,20.87
2019-02-15T02:11:28.088Z,6.60
2019-02-15T02:13:55.093Z,16.23
2019-02-15T02:16:22.104Z,19.83
2019-02-15T02:18:49.182Z,22.17
2019-02-15T02:21:16.127Z,18.57
2019-02-15T02:23:43.175Z,19.73
2019-02-15T02:26:10.233Z,20.57
2019-02-15T02:28:37.274Z,18.73
2019-02-15T02:31:04.322Z,10.57
2019-02-15T02:33:31.376Z,17.33
2019-02-15T02:35:58.422Z,16.50
2019-02-15T02:38:25.416Z,15.57
2019-02-15T02:40:52.925Z,15.03
2019-02-15T02:43:19.979Z,14.57
2019-02-15T02:45:47.022Z,15.23
2019-02-15T02:48:14.087Z,16.77
2019-02-15T02:50:41.136Z,14.70
2019-02-15T02:53:08.169Z,21.73
2019-02-15T02:55:35.222Z,10.97
2019-02-15T02:58:02.270Z,11.47
2019-02-15T03:00:33.603Z,12.83
2019-02-15T03:02:56.464Z,15.33
2019-02-15T03:05:23.518Z,12.20
2019-02-15T03:07:50.567Z,12.33
2019-02-15T03:10:17.916Z,7.73
2019-02-15T03:12:44.965Z,11.23
2019-02-15T03:15:12.022Z,8.90
2019-02-15T03:17:39.064Z,8.73
2019-02-15T03:20:06.057Z,7.97
2019-02-15T03:22:33.074Z,8.43
2019-02-15T03:25:00.278Z,7.40
2019-02-15T03:27:27.269Z,12.63
2019-02-15T03:29:54.312Z,12.50
2019-02-15T03:32:21.354Z,7.60
2019-02-15T03:34:48.402Z,6.13
2019-02-15T03:37:21.086Z,6.93
2019-02-15T03:39:48.137Z,8.07
2019-02-15T03:42:15.842Z,7.70
2019-02-15T03:44:42.945Z,9.33
2019-02-15T03:47:10.096Z,9.47
2019-02-15T03:49:37.151Z,7.23
2019-02-15T03:52:04.143Z,6.87
2019-02-15T03:54:31.143Z,6.53
2019-02-15T03:56:58.193Z,9.20
2019-02-15T03:59:25.238Z,4.43
2019-02-15T04:01:52.289Z,7.57
2019-02-15T04:04:19.742Z,5.67
2019-02-15T04:06:46.811Z,5.37
2019-02-15T04:09:13.838Z,4.63
2019-02-15T04:11:40.887Z,3.50
2019-02-15T04:14:09.062Z,6.03
2019-02-15T04:16:36.130Z,5.17
2019-02-15T04:19:03.168Z,7.47
2019-02-15T04:21:30.412Z,4.33
2019-02-15T04:23:57.467Z,5.33
2019-02-15T04:26:24.515Z,5.07
2019-02-15T04:28:51.969Z,4.43
2019-02-15T04:31:19.018Z,3.37
2019-02-15T04:33:46.069Z,3.03
2019-02-15T04:36:13.115Z,7.47
2019-02-15T04:38:40.162Z,4.43
2019-02-15T04:41:07.216Z,4.10
2019-02-15T04:43:34.259Z,5.90
2019-02-15T04:46:01.327Z,4.47
2019-02-15T04:48:28.361Z,2.50
2019-02-15T04:50:55.409Z,5.00
2019-02-15T04:53:22.458Z,1.10
2019-02-15T04:55:49.506Z,3.27
2019-02-15T04:58:16.563Z,6.50
2019-02-15T05:00:43.598Z,6.70
2019-02-15T05:03:10.651Z,5.10
2019-02-15T05:05:37.828Z,5.40
2019-02-15T05:08:04.856Z,2.60
2019-02-15T05:10:31.910Z,2.27
2019-02-15T05:12:59.071Z,3.43
2019-02-15T05:15:26.113Z,2.30
2019-02-15T05:17:53.111Z,3.40
2019-02-15T05:20:20.200Z,2.07
2019-02-15T05:22:47.871Z,2.70
2019-02-15T05:25:14.929Z,2.60
2019-02-15T05:27:41.961Z,2.60
2019-02-15T05:30:10.953Z,3.87
2019-02-15T05:32:38.008Z,2.33
2019-02-15T05:35:05.160Z,4.73
2019-02-15T05:37:32.200Z,11.10
2019-02-15T05:39:59.252Z,22.57
2019-02-15T05:42:26.303Z,5.13
2019-02-15T05:45:03.048Z,3.53
2019-02-15T05:47:20.497Z,27.00
2019-02-15T05:49:47.592Z,41.10
2019-02-15T05:52:14.798Z,6.70
2019-02-15T05:54:41.807Z,10.00
2019-02-15T05:57:09.793Z,3.83
2019-02-15T05:59:36.868Z,2.67
2019-02-15T06:02:04.039Z,2.23
2019-02-15T06:04:31.065Z,3.60
2019-02-15T06:06:59.721Z,3.27
2019-02-15T06:09:26.700Z,4.47
2019-02-15T06:11:53.659Z,2.70
2019-02-15T06:14:22.954Z,3.23
2019-02-15T06:16:50.201Z,3.37
2019-02-15T06:19:17.257Z,2.73
2019-02-15T06:21:44.311Z,3.90
2019-02-15T06:24:11.361Z,10.17
2019-02-15T06:26:38.399Z,2.40
2019-02-15T06:29:05.409Z,3.17
2019-02-15T06:31:32.353Z,3.97
2019-02-15T06:33:59.504Z,2.77
2019-02-15T06:36:26.586Z,4.17
2019-02-15T06:38:53.634Z,6.33
2019-02-15T06:41:20.691Z,4.40
2019-02-15T06:43:47.733Z,4.40
2019-02-15T06:46:14.786Z,2.97
2019-02-15T06:48:41.838Z,3.33
2019-02-15T06:51:08.900Z,3.03
2019-02-15T06:53:35.845Z,8.67
2019-02-15T06:56:02.935Z,5.00
2019-02-15T06:58:31.812Z,3.53
2019-02-15T07:00:57.173Z,5.17
2019-02-15T07:03:25.046Z,6.17
2019-02-15T07:05:52.140Z,2.83
2019-02-15T07:08:19.239Z,4.03
2019-02-15T07:10:46.288Z,4.17
2019-02-15T07:13:13.959Z,4.33
2019-02-15T07:15:44.240Z,4.10
2019-02-15T07:18:11.224Z,5.13
2019-02-15T07:20:38.628Z,2.90
2019-02-15T07:23:05.645Z,14.17
2019-02-15T07:25:32.677Z,4.57
2019-02-15T07:28:00.135Z,14.60
2019-02-15T07:30:27.274Z,5.80
2019-02-15T07:32:54.332Z,4.30
2019-02-15T07:35:22.270Z,21.33
2019-02-15T07:37:50.034Z,8.83
2019-02-15T07:40:17.239Z,7.67
2019-02-15T07:42:44.280Z,7.83
2019-02-15T07:45:11.776Z,5.27
2019-02-15T07:47:38.877Z,3.17
2019-02-15T07:50:05.926Z,4.17
2019-02-15T07:52:33.386Z,5.57
2019-02-15T07:55:00.439Z,6.93
2019-02-15T07:57:27.609Z,3.73
2019-02-15T07:59:58.307Z,4.27
2019-02-15T08:02:25.367Z,4.57
2019-02-15T08:04:52.379Z,5.17
2019-02-15T08:07:19.466Z,7.37
2019-02-15T08:09:46.513Z,4.40
2019-02-15T08:12:13.567Z,6.57
2019-02-15T08:14:40.727Z,9.27
2019-02-15T08:17:07.919Z,4.53
2019-02-15T08:19:35.116Z,4.57
2019-02-15T08:22:03.146Z,7.93
2019-02-15T08:24:32.807Z,3.53
2019-02-15T08:26:59.850Z,4.60
2019-02-15T08:29:26.915Z,4.17
2019-02-15T08:31:54.052Z,5.27
2019-02-15T08:34:21.094Z,4.13
2019-02-15T08:36:48.147Z,3.37
2019-02-15T08:39:15.336Z,3.40
2019-02-15T08:41:42.456Z,4.07
2019-02-15T08:44:09.599Z,2.47
2019-02-15T08:46:36.669Z,4.63
2019-02-15T08:49:05.845Z,5.80
2019-02-15T08:51:33.035Z,4.37
2019-02-15T08:54:00.785Z,3.47
2019-02-15T08:56:27.909Z,4.73
2019-02-15T08:58:54.965Z,3.83
2019-02-15T09:01:22.024Z,3.90
2019-02-15T09:03:49.122Z,5.50
2019-02-15T09:06:17.742Z,4.27
2019-02-15T09:08:44.892Z,4.47
2019-02-15T09:11:11.946Z,6.17
2019-02-15T09:13:39.098Z,5.90
2019-02-15T09:16:10.405Z,3.73
2019-02-15T09:18:33.367Z,7.10
2019-02-15T09:21:00.810Z,6.50
2019-02-15T09:23:27.901Z,3.97
2019-02-15T09:25:55.053Z,5.70
2019-02-15T09:28:23.030Z,6.53
2019-02-15T09:30:51.263Z,2.97
2019-02-15T09:33:18.350Z,6.90
2019-02-15T09:35:45.506Z,6.33
2019-02-15T09:38:12.546Z,7.20
2019-02-15T09:40:39.651Z,9.33
2019-02-15T09:43:06.954Z,7.53
2019-02-15T09:45:35.956Z,8.50
2019-02-15T09:48:03.085Z,7.80
2019-02-15T09:50:30.228Z,6.20
2019-02-15T09:52:57.315Z,8.17
2019-02-15T09:55:24.349Z,4.43
2019-02-15T09:57:53.236Z,7.47
2019-02-15T10:00:20.387Z,3.63
2019-02-15T10:02:47.473Z,6.70
2019-02-15T10:05:14.586Z,7.47
2019-02-15T10:07:42.200Z,7.00
2019-02-15T10:10:09.262Z,8.23
2019-02-15T10:12:36.321Z,7.73
2019-02-15T10:15:03.400Z,7.37
2019-02-15T10:17:31.882Z,8.77
2019-02-15T10:25:38.886Z,11.00
2019-02-15T10:28:07.552Z,8.13
2019-02-15T10:30:35.696Z,8.47
2019-02-15T10:36:04.707Z,8.50
2019-02-15T10:41:30.593Z,8.00
2019-02-15T10:43:57.974Z,8.23
2019-02-15T10:46:25.946Z,7.90
2019-02-15T10:48:53.505Z,5.57
2019-02-15T10:51:21.872Z,6.60
2019-02-15T10:53:49.915Z,4.87
2019-02-15T10:56:19.771Z,8.53
2019-02-15T10:58:49.589Z,7.00
2019-02-15T11:01:17.132Z,6.37
2019-02-15T11:03:50.058Z,6.50
2019-02-15T11:09:04.881Z,5.67
2019-02-15T11:11:33.627Z,5.80
2019-02-15T11:19:54.454Z,7.27
2019-02-15T11:22:23.622Z,7.13
2019-02-15T11:24:52.467Z,8.40
2019-02-15T11:27:20.878Z,7.63
2019-02-15T11:29:48.478Z,6.43
2019-02-15T11:32:16.479Z,7.33
2019-02-15T11:34:44.378Z,7.00
2019-02-15T11:37:11.466Z,8.73
2019-02-15T11:39:38.517Z,7.37
2019-02-15T11:42:05.820Z,7.60
2019-02-15T11:44:32.817Z,9.00
2019-02-15T11:46:59.872Z,11.20
2019-02-15T11:49:26.914Z,10.10
2019-02-15T11:51:53.965Z,8.50
2019-02-15T11:54:23.601Z,10.67
2019-02-15T11:56:48.474Z,7.90
2019-02-15T11:59:15.519Z,10.10
2019-02-15T12:01:42.672Z,10.20
2019-02-15T12:04:10.656Z,7.90
2019-02-15T12:06:39.378Z,9.57
2019-02-15T12:09:07.376Z,9.03
2019-02-15T12:11:35.090Z,8.70
2019-02-15T12:14:03.732Z,7.97
2019-02-15T12:16:31.316Z,10.83
2019-02-15T12:18:59.285Z,10.70
2019-02-15T12:21:27.124Z,8.77
2019-02-15T12:23:55.141Z,10.77
2019-02-15T12:26:22.581Z,11.37
2019-02-15T12:28:49.572Z,9.77
2019-02-15T12:31:20.524Z,8.47
2019-02-15T12:33:47.614Z,8.83
2019-02-15T12:36:14.870Z,9.90
2019-02-15T12:38:42.224Z,10.87
2019-02-15T12:41:09.271Z,11.10
2019-02-15T12:43:36.729Z,10.90
2019-02-15T12:46:05.984Z,11.43
2019-02-15T12:48:33.283Z,9.53
2019-02-15T12:51:00.435Z,10.80
2019-02-15T12:53:28.307Z,12.10
2019-02-15T12:55:56.408Z,11.05
2019-02-15T12:58:23.424Z,9.50
2019-02-15T13:00:51.171Z,10.05
2019-02-15T13:03:20.290Z,10.73
2019-02-15T13:05:49.534Z,10.90
2019-02-15T13:08:16.533Z,12.32
2019-02-15T13:10:43.685Z,11.50
2019-02-15T13:13:12.583Z,10.95
2019-02-15T13:15:39.624Z,11.70
2019-02-15T13:18:15.846Z,12.05
2019-02-15T13:20:49.150Z,10.57
2019-02-15T13:23:17.880Z,10.05
2019-02-15T13:25:45.783Z,9.82
2019-02-15T13:28:16.764Z,13.57
2019-02-15T13:30:44.472Z,11.57
2019-02-15T13:33:14.243Z,11.27
2019-02-15T13:35:42.445Z,9.02
2019-02-15T13:38:10.300Z,10.35
2019-02-15T13:40:38.943Z,10.90
2019-02-15T13:43:06.252Z,10.10
2019-02-15T13:45:33.344Z,9.00
2019-02-15T13:48:00.412Z,10.38
2019-02-15T13:50:27.698Z,10.20
2019-02-15T13:52:54.744Z,10.45
2019-02-15T13:55:23.245Z,12.75
2019-02-15T13:57:50.898Z,11.20
2019-02-15T14:00:17.962Z,14.52
2019-02-15T14:02:44.985Z,14.13
2019-02-15T14:05:12.250Z,11.85
2019-02-15T14:07:39.400Z,11.88
2019-02-15T14:10:07.240Z,11.23
2019-02-15T14:12:39.632Z,15.30
2019-02-15T14:15:08.087Z,15.68
2019-02-15T14:17:44.415Z,10.40
2019-02-15T14:20:05.101Z,10.77
2019-02-15T14:22:33.866Z,12.55
2019-02-15T14:25:00.985Z,12.25
2019-02-15T14:27:29.911Z,10.63
2019-02-15T14:30:02.596Z,11.95
2019-02-15T14:32:30.665Z,11.10
2019-02-15T14:34:58.335Z,11.82
2019-02-15T14:37:25.378Z,10.70
2019-02-15T14:39:52.584Z,12.98
2019-02-15T14:42:19.646Z,12.43
2019-02-15T14:44:46.737Z,12.95
2019-02-15T14:47:13.978Z,12.13
2019-02-15T14:49:41.181Z,11.75
2019-02-15T14:52:09.510Z,12.85
2019-02-15T14:54:36.544Z,11.00
2019-02-15T14:57:03.968Z,8.90
2019-02-15T14:59:31.070Z,10.10
2019-02-15T15:01:59.964Z,10.80
2019-02-15T15:04:27.006Z,9.40
2019-02-15T15:06:54.079Z,10.18
2019-02-15T15:09:21.212Z,11.63
2019-02-15T15:11:50.406Z,9.65
2019-02-15T15:14:18.181Z,12.23
2019-02-15T15:16:45.321Z,10.02
2019-02-15T15:19:12.369Z,10.85
2019-02-15T15:21:39.422Z,9.40
2019-02-15T15:24:06.466Z,9.73
2019-02-15T15:26:33.515Z,13.52
2019-02-15T15:29:00.570Z,11.80
2019-02-15T15:31:27.612Z,11.35
2019-02-15T15:33:54.661Z,11.23
2019-02-15T15:36:21.714Z,10.27
2019-02-15T15:38:49.787Z,12.27
2019-02-15T15:41:16.803Z,14.23
2019-02-15T15:43:43.782Z,10.93
2019-02-15T15:46:10.825Z,11.65
2019-02-15T15:48:37.873Z,11.48
2019-02-15T15:51:04.927Z,12.32
2019-02-15T15:53:31.971Z,11.88
2019-02-15T15:55:59.020Z,13.18
2019-02-15T15:58:26.072Z,11.27
2019-02-15T16:00:53.120Z,12.55
2019-02-15T16:03:20.165Z,14.20
2019-02-15T16:05:49.063Z,14.57
2019-02-15T16:08:16.105Z,11.63
2019-02-15T16:10:43.155Z,9.48
2019-02-15T16:13:11.023Z,9.40
2019-02-15T16:15:38.098Z,12.52
2019-02-15T16:18:05.132Z,13.23
2019-02-15T16:20:32.330Z,17.17
2019-02-15T16:22:59.322Z,18.45
2019-02-15T16:25:26.367Z,17.87
2019-02-15T16:27:53.832Z,20.48
2019-02-15T16:30:20.843Z,23.12
2019-02-15T16:32:48.091Z,25.90
2019-02-15T16:35:15.280Z,16.00
2019-02-15T16:37:42.846Z,20.85
2019-02-15T16:40:11.873Z,16.50
2019-02-15T16:42:37.536Z,15.73
2019-02-15T16:45:04.603Z,17.20
2019-02-15T16:47:32.461Z,19.50
2019-02-15T16:49:59.518Z,16.63
2019-02-15T16:52:26.670Z,19.10
2019-02-15T16:54:53.668Z,19.77
2019-02-15T16:57:22.204Z,17.93
2019-02-15T16:59:50.016Z,22.00
2019-02-15T17:02:17.126Z,20.80
2019-02-15T17:04:44.266Z,22.40
2019-02-15T17:07:11.350Z,49.67
2019-02-15T17:09:38.463Z,39.30
2019-02-15T17:12:05.631Z,56.40
2019-02-15T17:14:32.881Z,30.10
2019-02-15T17:16:59.920Z,29.10
2019-02-15T17:19:27.024Z,22.40
2019-02-15T17:21:54.122Z,24.20
2019-02-15T17:24:21.173Z,30.73
2019-02-15T17:26:48.217Z,22.50
2019-02-15T17:29:15.270Z,18.17
2019-02-15T17:31:42.520Z,22.57
2019-02-15T17:34:09.570Z,20.73
2019-02-15T17:36:36.586Z,19.77
2019-02-15T17:39:03.610Z,13.90
2019-02-15T17:41:30.918Z,14.07
2019-02-15T17:43:58.079Z,12.63
2019-02-15T17:46:25.119Z,18.90
2019-02-15T17:49:00.361Z,13.80
2019-02-15T17:51:19.679Z,15.27
2019-02-15T17:53:46.937Z,14.20
2019-02-15T17:56:14.129Z,14.47
2019-02-15T17:58:41.280Z,14.73
2019-02-15T18:01:08.430Z,13.03
2019-02-15T18:03:35.585Z,11.47
2019-02-15T18:06:02.732Z,11.30
2019-02-15T18:08:29.782Z,11.47
2019-02-15T18:10:58.609Z,12.77
2019-02-15T18:13:25.083Z,14.80
2019-02-15T18:15:53.999Z,14.43
2019-02-15T18:18:21.001Z,11.97
2019-02-15T18:20:50.143Z,12.40
2019-02-15T18:23:17.197Z,11.37
2019-02-15T18:25:46.162Z,11.23
2019-02-15T18:28:15.494Z,13.13
2019-02-15T18:30:44.134Z,14.03
2019-02-15T18:33:17.888Z,17.17
2019-02-15T18:35:47.529Z,17.87
2019-02-15T18:38:16.877Z,16.90
2019-02-15T18:40:46.102Z,14.90
2019-02-15T18:43:15.179Z,17.20
2019-02-15T18:45:44.215Z,13.83
2019-02-15T18:48:12.173Z,17.93
2019-02-15T18:50:40.278Z,14.50
2019-02-15T18:53:09.304Z,14.47
2019-02-15T18:55:42.067Z,14.87
2019-02-15T18:58:11.716Z,20.40
2019-02-15T19:00:39.281Z,15.23
2019-02-15T19:05:41.470Z,19.13
2019-02-15T19:08:12.307Z,32.60
2019-02-15T19:10:41.498Z,27.17
2019-02-15T19:13:12.020Z,15.70
2019-02-15T19:15:41.043Z,11.87
2019-02-15T19:18:10.597Z,15.87
2019-02-15T19:20:40.181Z,12.00
2019-02-15T19:23:09.643Z,13.03
2019-02-15T19:25:39.151Z,14.40
2019-02-15T19:28:08.286Z,15.30
2019-02-15T19:30:38.191Z,14.07
2019-02-15T19:33:07.762Z,16.67
2019-02-15T19:35:35.910Z,15.40
2019-02-15T19:38:03.001Z,13.33
2019-02-15T19:40:31.729Z,11.73
2019-02-15T19:43:06.453Z,16.63
2019-02-15T19:45:35.805Z,12.73
2019-02-15T19:48:04.470Z,13.90
2019-02-15T19:50:35.117Z,31.23
2019-02-15T19:53:02.286Z,31.30
2019-02-15T19:55:29.279Z,16.67
2019-02-15T19:57:57.318Z,12.67
2019-02-15T20:00:24.472Z,10.67
2019-02-15T20:02:51.503Z,10.23
2019-02-15T20:05:24.664Z,13.67
2019-02-15T20:07:57.826Z,11.87
2019-02-15T20:10:25.346Z,12.00
2019-02-15T20:12:52.497Z,12.60
2019-02-15T20:15:19.772Z,19.03
2019-02-15T20:17:47.141Z,11.33
2019-02-15T20:20:15.178Z,11.67
2019-02-15T20:22:42.225Z,15.30
2019-02-15T20:25:09.484Z,12.37
2019-02-15T20:27:36.586Z,11.40
2019-02-15T20:30:03.638Z,14.73
2019-02-15T20:32:30.731Z,11.40
2019-02-15T20:34:57.780Z,11.63
2019-02-15T20:37:24.780Z,16.97
2019-02-15T20:39:51.877Z,13.43
2019-02-15T20:42:18.925Z,15.53
2019-02-15T20:44:45.968Z,16.23
2019-02-15T20:47:16.497Z,12.43
2019-02-15T20:49:43.873Z,17.53
2019-02-15T20:52:16.384Z,13.33
2019-02-15T20:54:43.384Z,11.37
2019-02-15T20:57:13.827Z,12.87
2019-02-15T20:59:42.341Z,13.40
2019-02-15T21:02:10.753Z,13.07
2019-02-15T21:04:37.831Z,16.57
2019-02-15T21:07:06.302Z,18.77
2019-02-15T21:09:34.279Z,14.13
2019-02-15T21:12:01.320Z,11.00
2019-02-15T21:14:28.473Z,14.27
2019-02-15T21:16:55.945Z,11.20
2019-02-15T21:19:25.971Z,12.67
2019-02-15T21:21:53.414Z,14.53
2019-02-15T21:24:20.880Z,13.90
2019-02-15T21:26:48.221Z,17.87
2019-02-15T21:29:15.587Z,11.80
2019-02-15T21:31:42.596Z,15.67
2019-02-15T21:34:09.672Z,20.10
2019-02-15T21:36:36.681Z,17.20
2019-02-15T21:39:03.792Z,11.63
2019-02-15T21:41:30.834Z,12.10
2019-02-15T21:43:57.871Z,21.23
2019-02-15T21:46:25.020Z,8.23
2019-02-15T21:48:52.997Z,8.70
2019-02-15T21:51:20.027Z,11.77
2019-02-15T21:53:47.042Z,16.10
2019-02-15T21:56:16.660Z,14.20
2019-02-15T21:58:43.748Z,16.13
2019-02-15T22:01:10.790Z,11.27
2019-02-15T22:03:37.839Z,10.70
2019-02-15T22:06:04.893Z,11.03
2019-02-15T22:08:31.936Z,14.60
2019-02-15T22:10:58.985Z,14.77
2019-02-15T22:13:26.038Z,14.43
2019-02-15T22:15:53.083Z,14.60
2019-02-15T22:18:20.129Z,18.67
2019-02-15T22:20:47.184Z,50.80
2019-02-15T22:23:14.227Z,32.17
2019-02-15T22:25:41.276Z,22.07
2019-02-15T22:28:08.330Z,16.40
2019-02-15T22:30:35.379Z,25.30
2019-02-15T22:33:02.528Z,38.00
2019-02-15T22:35:29.578Z,52.07
2019-02-15T22:37:56.638Z,13.37
2019-02-15T22:40:25.622Z,17.47
2019-02-15T22:42:52.669Z,16.87
2019-02-15T22:45:19.780Z,17.13
2019-02-15T22:47:46.864Z,20.37
2019-02-15T22:50:13.856Z,19.97
2019-02-15T22:52:40.813Z,15.73
2019-02-15T22:55:07.911Z,15.40
2019-02-15T22:57:34.955Z,12.17
2019-02-15T23:00:04.141Z,11.33
2019-02-15T23:02:29.154Z,15.43
2019-02-15T23:04:57.846Z,13.23
2019-02-15T23:07:24.901Z,17.90
2019-02-15T23:09:51.939Z,28.10
2019-02-15T23:12:19.397Z,42.23
2019-02-15T23:14:46.445Z,29.97
2019-02-15T23:17:13.499Z,23.60
2019-02-15T23:19:40.850Z,17.40
2019-02-15T23:22:07.898Z,18.50
2019-02-15T23:24:34.953Z,20.80
2019-02-15T23:27:01.997Z,24.70
2019-02-15T23:29:29.048Z,24.10
2019-02-15T23:31:56.040Z,22.90
2019-02-15T23:34:23.142Z,21.63
2019-02-15T23:36:50.192Z,23.07
2019-02-15T23:39:17.244Z,20.73
2019-02-15T23:41:44.286Z,23.00
2019-02-15T23:44:11.335Z,17.00
2019-02-15T23:46:38.389Z,13.63
2019-02-15T23:49:05.432Z,14.23
2019-02-15T23:51:32.480Z,17.60
2019-02-15T23:53:59.534Z,19.93
2019-02-15T23:56:26.579Z,14.97
2019-02-15T23:58:53.627Z,18.77
